sensor_id;sensor_type;location;lat;lon;timestamp;P1;durP1;ratioP1;P2;durP2;ratioP2
3081;SDS011;1551;51.046;7.010;2024-01-15T00:02:26;25.33;;;14.75;;
3081;SDS011;1551;51.046;7.010;2024-01-15T00:05:15;26.73;;;14.45;;
3081;SDS011;1551;51.046;7.010;2024-01-15T00:08:04;28.95;;;15.55;;
3081;SDS011;1551;51.046;7.010;2024-01-15T00:10:53;23.88;;;15.77;;
3081;SDS011;1551;51.046;7.010;2024-01-15T00:13:42;24.88;;;14.85;;
3081;SDS011;1551;51.046;7.010;2024-01-15T00:16:31;23.95;;;14.65;;
3081;SDS011;1551;51.046;7.010;2024-01-15T00:19:21;24.13;;;14.80;;
3081;SDS011;1551;51.046;7.010;2024-01-15T00:22:10;26.70;;;15.13;;
3081;SDS011;1551;51.046;7.010;2024-01-15T00:24:59;27.45;;;15.15;;
3081;SDS011;1551;51.046;7.010;2024-01-15T00:27:48;22.88;;;13.50;;
3081;SDS011;1551;51.046;7.010;2024-01-15T00:30:37;24.45;;;15.70;;
3081;SDS011;1551;51.046;7.010;2024-01-15T00:33:26;24.70;;;14.82;;
3081;SDS011;1551;51.046;7.010;2024-01-15T00:36:15;25.42;;;15.88;;
3081;SDS011;1551;51.046;7.010;2024-01-15T00:39:05;26.52;;;16.17;;
3081;SDS011;1551;51.046;7.010;2024-01-15T00:41:54;24.58;;;14.55;;
3081;SDS011;1551;51.046;7.010;2024-01-15T00:44:43;23.20;;;14.43;;
3081;SDS011;1551;51.046;7.010;2024-01-15T00:47:32;30.13;;;16.83;;
3081;SDS011;1551;51.046;7.010;2024-01-15T00:50:21;24.15;;;14.93;;
3081;SDS011;1551;51.046;7.010;2024-01-15T00:53:10;29.77;;;17.58;;
3081;SDS011;1551;51.046;7.010;2024-01-15T00:55:59;28.05;;;16.33;;
3081;SDS011;1551;51.046;7.010;2024-01-15T00:58:48;27.77;;;17.88;;
3081;SDS011;1551;51.046;7.010;2024-01-15T01:01:37;27.50;;;16.77;;
3081;SDS011;1551;51.046;7.010;2024-01-15T01:04:26;27.15;;;16.65;;
3081;SDS011;1551;51.046;7.010;2024-01-15T01:07:16;28.88;;;16.38;;
3081;SDS011;1551;51.046;7.010;2024-01-15T01:10:05;27.80;;;15.30;;
3081;SDS011;1551;51.046;7.010;2024-01-15T01:12:55;25.27;;;16.35;;
3081;SDS011;1551;51.046;7.010;2024-01-15T01:15:44;28.00;;;15.80;;
3081;SDS011;1551;51.046;7.010;2024-01-15T01:18:33;28.98;;;16.25;;
3081;SDS011;1551;51.046;7.010;2024-01-15T01:21:22;26.45;;;16.67;;
3081;SDS011;1551;51.046;7.010;2024-01-15T01:24:11;28.00;;;15.73;;
3081;SDS011;1551;51.046;7.010;2024-01-15T01:26:59;29.25;;;16.08;;
3081;SDS011;1551;51.046;7.010;2024-01-15T01:29:48;27.88;;;15.88;;
3081;SDS011;1551;51.046;7.010;2024-01-15T01:32:37;27.15;;;14.77;;
3081;SDS011;1551;51.046;7.010;2024-01-15T01:35:26;26.15;;;15.02;;
3081;SDS011;1551;51.046;7.010;2024-01-15T01:38:15;23.13;;;13.73;;
3081;SDS011;1551;51.046;7.010;2024-01-15T01:41:04;23.52;;;14.10;;
3081;SDS011;1551;51.046;7.010;2024-01-15T01:43:53;21.85;;;13.27;;
3081;SDS011;1551;51.046;7.010;2024-01-15T01:46:42;20.17;;;14.63;;
3081;SDS011;1551;51.046;7.010;2024-01-15T01:49:32;26.55;;;14.18;;
3081;SDS011;1551;51.046;7.010;2024-01-15T01:52:24;27.02;;;15.23;;
3081;SDS011;1551;51.046;7.010;2024-01-15T01:55:13;24.38;;;14.70;;
3081;SDS011;1551;51.046;7.010;2024-01-15T01:58:02;24.27;;;13.68;;
3081;SDS011;1551;51.046;7.010;2024-01-15T02:00:52;25.20;;;14.35;;
3081;SDS011;1551;51.046;7.010;2024-01-15T02:03:42;27.73;;;15.00;;
3081;SDS011;1551;51.046;7.010;2024-01-15T02:06:31;24.27;;;14.10;;
3081;SDS011;1551;51.046;7.010;2024-01-15T02:09:20;25.83;;;15.43;;
3081;SDS011;1551;51.046;7.010;2024-01-15T02:12:10;25.88;;;16.00;;
3081;SDS011;1551;51.046;7.010;2024-01-15T02:14:59;23.33;;;14.40;;
3081;SDS011;1551;51.046;7.010;2024-01-15T02:18:03;29.45;;;16.05;;
3081;SDS011;1551;51.046;7.010;2024-01-15T02:20:53;22.33;;;14.75;;
3081;SDS011;1551;51.046;7.010;2024-01-15T02:23:42;24.95;;;14.73;;
3081;SDS011;1551;51.046;7.010;2024-01-15T02:26:31;22.42;;;14.20;;
3081;SDS011;1551;51.046;7.010;2024-01-15T02:29:24;22.25;;;14.20;;
3081;SDS011;1551;51.046;7.010;2024-01-15T02:32:13;22.57;;;14.70;;
3081;SDS011;1551;51.046;7.010;2024-01-15T02:35:02;23.08;;;14.05;;
3081;SDS011;1551;51.046;7.010;2024-01-15T02:37:52;23.20;;;13.82;;
3081;SDS011;1551;51.046;7.010;2024-01-15T02:40:41;25.25;;;14.43;;
3081;SDS011;1551;51.046;7.010;2024-01-15T02:43:31;23.57;;;14.60;;
3081;SDS011;1551;51.046;7.010;2024-01-15T02:46:20;23.35;;;14.40;;
3081;SDS011;1551;51.046;7.010;2024-01-15T02:49:09;26.65;;;14.55;;
3081;SDS011;1551;51.046;7.010;2024-01-15T02:51:58;26.17;;;13.73;;
3081;SDS011;1551;51.046;7.010;2024-01-15T02:54:47;23.23;;;14.30;;
3081;SDS011;1551;51.046;7.010;2024-01-15T02:57:36;24.45;;;15.15;;
3081;SDS011;1551;51.046;7.010;2024-01-15T03:00:25;20.85;;;13.05;;
3081;SDS011;1551;51.046;7.010;2024-01-15T03:03:14;21.85;;;13.90;;
3081;SDS011;1551;51.046;7.010;2024-01-15T03:06:03;22.95;;;13.43;;
3081;SDS011;1551;51.046;7.010;2024-01-15T03:08:52;26.10;;;13.88;;
3081;SDS011;1551;51.046;7.010;2024-01-15T03:11:41;24.83;;;13.55;;
3081;SDS011;1551;51.046;7.010;2024-01-15T03:14:30;24.40;;;13.63;;
3081;SDS011;1551;51.046;7.010;2024-01-15T03:17:19;21.23;;;13.27;;
3081;SDS011;1551;51.046;7.010;2024-01-15T03:20:08;19.90;;;12.02;;
3081;SDS011;1551;51.046;7.010;2024-01-15T03:22:57;20.85;;;13.43;;
3081;SDS011;1551;51.046;7.010;2024-01-15T03:25:46;21.70;;;13.35;;
3081;SDS011;1551;51.046;7.010;2024-01-15T03:28:35;19.73;;;12.88;;
3081;SDS011;1551;51.046;7.010;2024-01-15T03:31:24;18.05;;;12.13;;
3081;SDS011;1551;51.046;7.010;2024-01-15T03:34:13;19.05;;;12.30;;
3081;SDS011;1551;51.046;7.010;2024-01-15T03:37:02;17.95;;;12.10;;
3081;SDS011;1551;51.046;7.010;2024-01-15T03:39:50;18.90;;;12.85;;
3081;SDS011;1551;51.046;7.010;2024-01-15T03:42:39;19.75;;;12.63;;
3081;SDS011;1551;51.046;7.010;2024-01-15T03:45:28;17.50;;;11.55;;
3081;SDS011;1551;51.046;7.010;2024-01-15T03:48:17;17.58;;;12.20;;
3081;SDS011;1551;51.046;7.010;2024-01-15T03:51:06;20.00;;;12.38;;
3081;SDS011;1551;51.046;7.010;2024-01-15T03:53:55;20.03;;;12.67;;
3081;SDS011;1551;51.046;7.010;2024-01-15T03:56:45;18.23;;;11.90;;
3081;SDS011;1551;51.046;7.010;2024-01-15T03:59:34;20.75;;;12.95;;
3081;SDS011;1551;51.046;7.010;2024-01-15T04:02:23;17.85;;;12.75;;
3081;SDS011;1551;51.046;7.010;2024-01-15T04:05:11;23.63;;;13.75;;
3081;SDS011;1551;51.046;7.010;2024-01-15T04:08:01;19.50;;;13.25;;
3081;SDS011;1551;51.046;7.010;2024-01-15T04:10:50;19.45;;;13.68;;
3081;SDS011;1551;51.046;7.010;2024-01-15T04:13:39;18.92;;;12.70;;
3081;SDS011;1551;51.046;7.010;2024-01-15T04:16:28;22.20;;;13.00;;
3081;SDS011;1551;51.046;7.010;2024-01-15T04:19:17;22.08;;;13.98;;
3081;SDS011;1551;51.046;7.010;2024-01-15T04:22:06;20.20;;;11.95;;
3081;SDS011;1551;51.046;7.010;2024-01-15T04:24:55;19.38;;;12.43;;
3081;SDS011;1551;51.046;7.010;2024-01-15T04:27:44;18.00;;;12.52;;
3081;SDS011;1551;51.046;7.010;2024-01-15T04:30:33;23.55;;;13.68;;
3081;SDS011;1551;51.046;7.010;2024-01-15T04:33:21;22.20;;;13.50;;
3081;SDS011;1551;51.046;7.010;2024-01-15T04:36:10;21.67;;;13.10;;
3081;SDS011;1551;51.046;7.010;2024-01-15T04:38:59;17.30;;;12.35;;
3081;SDS011;1551;51.046;7.010;2024-01-15T04:41:48;22.00;;;13.03;;
3081;SDS011;1551;51.046;7.010;2024-01-15T04:44:37;18.42;;;12.52;;
3081;SDS011;1551;51.046;7.010;2024-01-15T04:47:26;19.48;;;12.18;;
3081;SDS011;1551;51.046;7.010;2024-01-15T04:50:15;21.00;;;12.30;;
3081;SDS011;1551;51.046;7.010;2024-01-15T04:53:04;15.77;;;10.85;;
3081;SDS011;1551;51.046;7.010;2024-01-15T04:55:53;18.25;;;11.45;;
3081;SDS011;1551;51.046;7.010;2024-01-15T04:58:42;16.25;;;11.07;;
3081;SDS011;1551;51.046;7.010;2024-01-15T05:01:31;17.55;;;10.35;;
3081;SDS011;1551;51.046;7.010;2024-01-15T05:04:21;17.33;;;9.90;;
3081;SDS011;1551;51.046;7.010;2024-01-15T05:07:10;15.00;;;10.77;;
3081;SDS011;1551;51.046;7.010;2024-01-15T05:09:58;19.20;;;12.10;;
3081;SDS011;1551;51.046;7.010;2024-01-15T05:12:47;17.83;;;10.75;;
3081;SDS011;1551;51.046;7.010;2024-01-15T05:15:36;18.92;;;11.02;;
3081;SDS011;1551;51.046;7.010;2024-01-15T05:18:25;14.90;;;11.00;;
3081;SDS011;1551;51.046;7.010;2024-01-15T05:21:14;15.93;;;10.60;;
3081;SDS011;1551;51.046;7.010;2024-01-15T05:24:03;16.55;;;10.68;;
3081;SDS011;1551;51.046;7.010;2024-01-15T05:26:52;20.20;;;10.77;;
3081;SDS011;1551;51.046;7.010;2024-01-15T05:29:41;17.05;;;10.27;;
3081;SDS011;1551;51.046;7.010;2024-01-15T05:32:30;18.00;;;10.50;;
3081;SDS011;1551;51.046;7.010;2024-01-15T05:35:19;17.67;;;10.40;;
3081;SDS011;1551;51.046;7.010;2024-01-15T05:38:08;15.45;;;9.93;;
3081;SDS011;1551;51.046;7.010;2024-01-15T05:40:57;16.30;;;10.00;;
3081;SDS011;1551;51.046;7.010;2024-01-15T05:43:46;15.60;;;9.98;;
3081;SDS011;1551;51.046;7.010;2024-01-15T05:46:35;17.15;;;10.23;;
3081;SDS011;1551;51.046;7.010;2024-01-15T05:49:24;15.05;;;9.48;;
3081;SDS011;1551;51.046;7.010;2024-01-15T05:52:13;14.93;;;10.60;;
3081;SDS011;1551;51.046;7.010;2024-01-15T05:55:02;17.50;;;11.18;;
3081;SDS011;1551;51.046;7.010;2024-01-15T05:57:51;14.77;;;9.70;;
3081;SDS011;1551;51.046;7.010;2024-01-15T06:00:42;15.30;;;9.20;;
3081;SDS011;1551;51.046;7.010;2024-01-15T06:03:31;13.00;;;8.70;;
3081;SDS011;1551;51.046;7.010;2024-01-15T06:06:20;15.75;;;8.32;;
3081;SDS011;1551;51.046;7.010;2024-01-15T06:09:09;14.90;;;8.65;;
3081;SDS011;1551;51.046;7.010;2024-01-15T06:11:58;10.93;;;7.70;;
3081;SDS011;1551;51.046;7.010;2024-01-15T06:14:47;11.52;;;7.80;;
3081;SDS011;1551;51.046;7.010;2024-01-15T06:17:36;11.40;;;7.35;;
3081;SDS011;1551;51.046;7.010;2024-01-15T06:20:26;13.27;;;8.13;;
3081;SDS011;1551;51.046;7.010;2024-01-15T06:23:15;10.45;;;7.38;;
3081;SDS011;1551;51.046;7.010;2024-01-15T06:26:04;10.98;;;7.70;;
3081;SDS011;1551;51.046;7.010;2024-01-15T06:28:54;12.63;;;8.20;;
3081;SDS011;1551;51.046;7.010;2024-01-15T06:31:43;11.43;;;7.88;;
3081;SDS011;1551;51.046;7.010;2024-01-15T06:34:32;11.57;;;7.70;;
3081;SDS011;1551;51.046;7.010;2024-01-15T06:37:21;10.98;;;7.82;;
3081;SDS011;1551;51.046;7.010;2024-01-15T06:40:09;13.70;;;8.60;;
3081;SDS011;1551;51.046;7.010;2024-01-15T06:42:59;13.23;;;8.60;;
3081;SDS011;1551;51.046;7.010;2024-01-15T06:45:48;12.00;;;8.43;;
3081;SDS011;1551;51.046;7.010;2024-01-15T06:48:37;11.55;;;8.18;;
3081;SDS011;1551;51.046;7.010;2024-01-15T06:51:26;10.00;;;7.65;;
3081;SDS011;1551;51.046;7.010;2024-01-15T06:54:15;13.25;;;8.20;;
3081;SDS011;1551;51.046;7.010;2024-01-15T06:57:04;11.30;;;8.27;;
3081;SDS011;1551;51.046;7.010;2024-01-15T06:59:55;10.35;;;8.13;;
3081;SDS011;1551;51.046;7.010;2024-01-15T07:02:44;12.82;;;8.30;;
3081;SDS011;1551;51.046;7.010;2024-01-15T07:05:33;15.68;;;8.93;;
3081;SDS011;1551;51.046;7.010;2024-01-15T07:08:22;12.40;;;8.60;;
3081;SDS011;1551;51.046;7.010;2024-01-15T07:11:11;10.70;;;8.25;;
3081;SDS011;1551;51.046;7.010;2024-01-15T07:14:00;13.85;;;8.98;;
3081;SDS011;1551;51.046;7.010;2024-01-15T07:16:48;11.47;;;9.10;;
3081;SDS011;1551;51.046;7.010;2024-01-15T07:19:37;16.10;;;9.65;;
3081;SDS011;1551;51.046;7.010;2024-01-15T07:22:27;12.45;;;8.43;;
3081;SDS011;1551;51.046;7.010;2024-01-15T07:25:16;10.65;;;8.32;;
3081;SDS011;1551;51.046;7.010;2024-01-15T07:28:04;12.98;;;9.13;;
3081;SDS011;1551;51.046;7.010;2024-01-15T07:30:54;11.55;;;8.80;;
3081;SDS011;1551;51.046;7.010;2024-01-15T07:33:43;11.57;;;8.45;;
3081;SDS011;1551;51.046;7.010;2024-01-15T07:36:32;14.98;;;8.82;;
3081;SDS011;1551;51.046;7.010;2024-01-15T07:39:21;11.93;;;9.15;;
3081;SDS011;1551;51.046;7.010;2024-01-15T07:42:12;11.82;;;8.40;;
3081;SDS011;1551;51.046;7.010;2024-01-15T07:45:01;14.63;;;10.00;;
3081;SDS011;1551;51.046;7.010;2024-01-15T07:47:50;14.57;;;9.80;;
3081;SDS011;1551;51.046;7.010;2024-01-15T07:50:39;12.93;;;8.50;;
3081;SDS011;1551;51.046;7.010;2024-01-15T07:53:29;12.23;;;9.50;;
3081;SDS011;1551;51.046;7.010;2024-01-15T07:56:18;14.18;;;9.68;;
3081;SDS011;1551;51.046;7.010;2024-01-15T07:59:06;13.60;;;9.35;;
3081;SDS011;1551;51.046;7.010;2024-01-15T08:01:55;14.18;;;10.23;;
3081;SDS011;1551;51.046;7.010;2024-01-15T08:04:44;12.07;;;9.38;;
3081;SDS011;1551;51.046;7.010;2024-01-15T08:07:34;16.83;;;10.35;;
3081;SDS011;1551;51.046;7.010;2024-01-15T08:10:23;15.18;;;9.93;;
3081;SDS011;1551;51.046;7.010;2024-01-15T08:13:12;13.77;;;10.15;;
3081;SDS011;1551;51.046;7.010;2024-01-15T08:16:01;15.05;;;10.23;;
3081;SDS011;1551;51.046;7.010;2024-01-15T08:18:50;14.25;;;10.18;;
3081;SDS011;1551;51.046;7.010;2024-01-15T08:21:39;16.23;;;10.48;;
3081;SDS011;1551;51.046;7.010;2024-01-15T08:24:29;16.75;;;10.90;;
3081;SDS011;1551;51.046;7.010;2024-01-15T08:27:18;16.95;;;11.43;;
3081;SDS011;1551;51.046;7.010;2024-01-15T08:30:07;18.15;;;11.60;;
3081;SDS011;1551;51.046;7.010;2024-01-15T08:32:56;20.15;;;12.25;;
3081;SDS011;1551;51.046;7.010;2024-01-15T08:35:45;16.85;;;11.98;;
3081;SDS011;1551;51.046;7.010;2024-01-15T08:38:34;19.30;;;12.90;;
3081;SDS011;1551;51.046;7.010;2024-01-15T08:41:23;18.25;;;12.80;;
3081;SDS011;1551;51.046;7.010;2024-01-15T08:44:12;19.85;;;13.05;;
3081;SDS011;1551;51.046;7.010;2024-01-15T08:47:01;19.52;;;13.38;;
3081;SDS011;1551;51.046;7.010;2024-01-15T08:49:51;21.63;;;12.70;;
3081;SDS011;1551;51.046;7.010;2024-01-15T08:52:40;19.13;;;12.43;;
3081;SDS011;1551;51.046;7.010;2024-01-15T08:55:29;15.85;;;11.73;;
3081;SDS011;1551;51.046;7.010;2024-01-15T08:58:18;20.35;;;11.90;;
3081;SDS011;1551;51.046;7.010;2024-01-15T09:01:07;17.63;;;11.73;;
3081;SDS011;1551;51.046;7.010;2024-01-15T09:03:56;16.67;;;12.15;;
3081;SDS011;1551;51.046;7.010;2024-01-15T09:06:45;20.17;;;12.48;;
3081;SDS011;1551;51.046;7.010;2024-01-15T09:09:37;18.67;;;12.30;;
3081;SDS011;1551;51.046;7.010;2024-01-15T09:12:27;17.65;;;12.05;;
3081;SDS011;1551;51.046;7.010;2024-01-15T09:15:16;15.65;;;11.32;;
3081;SDS011;1551;51.046;7.010;2024-01-15T09:18:05;19.48;;;11.85;;
3081;SDS011;1551;51.046;7.010;2024-01-15T09:20:54;18.60;;;12.60;;
3081;SDS011;1551;51.046;7.010;2024-01-15T09:23:43;16.10;;;11.37;;
3081;SDS011;1551;51.046;7.010;2024-01-15T09:26:32;15.43;;;11.53;;
3081;SDS011;1551;51.046;7.010;2024-01-15T09:29:22;16.75;;;10.48;;
3081;SDS011;1551;51.046;7.010;2024-01-15T09:32:12;15.73;;;11.40;;
3081;SDS011;1551;51.046;7.010;2024-01-15T09:35:01;19.35;;;10.40;;
3081;SDS011;1551;51.046;7.010;2024-01-15T09:37:51;18.55;;;12.13;;
3081;SDS011;1551;51.046;7.010;2024-01-15T09:40:39;14.95;;;10.75;;
3081;SDS011;1551;51.046;7.010;2024-01-15T09:43:33;13.45;;;9.90;;
3081;SDS011;1551;51.046;7.010;2024-01-15T09:46:23;13.80;;;9.52;;
3081;SDS011;1551;51.046;7.010;2024-01-15T09:49:12;12.55;;;8.15;;
3081;SDS011;1551;51.046;7.010;2024-01-15T09:52:01;10.15;;;7.80;;
3081;SDS011;1551;51.046;7.010;2024-01-15T09:54:50;9.40;;;6.75;;
3081;SDS011;1551;51.046;7.010;2024-01-15T09:57:41;10.45;;;7.72;;
3081;SDS011;1551;51.046;7.010;2024-01-15T10:00:30;9.05;;;6.90;;
3081;SDS011;1551;51.046;7.010;2024-01-15T10:03:22;10.07;;;6.80;;
3081;SDS011;1551;51.046;7.010;2024-01-15T10:06:11;8.37;;;6.63;;
3081;SDS011;1551;51.046;7.010;2024-01-15T10:09:06;10.10;;;6.40;;
3081;SDS011;1551;51.046;7.010;2024-01-15T10:11:56;6.93;;;6.03;;
3081;SDS011;1551;51.046;7.010;2024-01-15T10:14:45;9.20;;;6.38;;
3081;SDS011;1551;51.046;7.010;2024-01-15T10:17:35;9.68;;;6.32;;
3081;SDS011;1551;51.046;7.010;2024-01-15T10:20:25;8.40;;;5.85;;
3081;SDS011;1551;51.046;7.010;2024-01-15T10:23:14;8.75;;;5.70;;
3081;SDS011;1551;51.046;7.010;2024-01-15T10:26:04;8.73;;;6.40;;
3081;SDS011;1551;51.046;7.010;2024-01-15T10:28:53;6.18;;;4.80;;
3081;SDS011;1551;51.046;7.010;2024-01-15T10:31:42;6.40;;;4.50;;
3081;SDS011;1551;51.046;7.010;2024-01-15T10:34:31;6.13;;;4.90;;
3081;SDS011;1551;51.046;7.010;2024-01-15T10:37:20;6.00;;;5.03;;
3081;SDS011;1551;51.046;7.010;2024-01-15T10:40:09;9.13;;;6.55;;
3081;SDS011;1551;51.046;7.010;2024-01-15T10:42:59;5.93;;;4.95;;
3081;SDS011;1551;51.046;7.010;2024-01-15T10:45:48;7.63;;;5.03;;
3081;SDS011;1551;51.046;7.010;2024-01-15T10:48:38;6.32;;;5.20;;
3081;SDS011;1551;51.046;7.010;2024-01-15T10:51:28;8.60;;;4.57;;
3081;SDS011;1551;51.046;7.010;2024-01-15T10:54:18;6.57;;;4.10;;
3081;SDS011;1551;51.046;7.010;2024-01-15T10:57:08;5.82;;;4.43;;
3081;SDS011;1551;51.046;7.010;2024-01-15T10:59:58;4.30;;;3.40;;
3081;SDS011;1551;51.046;7.010;2024-01-15T11:02:47;5.53;;;3.42;;
3081;SDS011;1551;51.046;7.010;2024-01-15T11:05:37;6.32;;;3.80;;
3081;SDS011;1551;51.046;7.010;2024-01-15T11:08:27;7.03;;;3.72;;
3081;SDS011;1551;51.046;7.010;2024-01-15T11:11:16;4.70;;;3.20;;
3081;SDS011;1551;51.046;7.010;2024-01-15T11:14:06;7.57;;;5.15;;
3081;SDS011;1551;51.046;7.010;2024-01-15T11:16:56;4.10;;;3.20;;
3081;SDS011;1551;51.046;7.010;2024-01-15T11:19:48;4.28;;;2.90;;
3081;SDS011;1551;51.046;7.010;2024-01-15T11:22:47;4.30;;;2.75;;
3081;SDS011;1551;51.046;7.010;2024-01-15T11:25:37;4.70;;;2.60;;
3081;SDS011;1551;51.046;7.010;2024-01-15T11:40:43;4.15;;;2.30;;
3081;SDS011;1551;51.046;7.010;2024-01-15T11:43:34;4.40;;;2.50;;
3081;SDS011;1551;51.046;7.010;2024-01-15T11:46:23;4.70;;;2.13;;
3081;SDS011;1551;51.046;7.010;2024-01-15T11:49:24;5.13;;;2.53;;
3081;SDS011;1551;51.046;7.010;2024-01-15T11:52:19;3.70;;;2.20;;
3081;SDS011;1551;51.046;7.010;2024-01-15T11:58:01;2.90;;;1.92;;
3081;SDS011;1551;51.046;7.010;2024-01-15T12:00:51;3.92;;;2.10;;
3081;SDS011;1551;51.046;7.010;2024-01-15T12:03:41;3.75;;;2.03;;
3081;SDS011;1551;51.046;7.010;2024-01-15T12:06:31;4.00;;;2.50;;
3081;SDS011;1551;51.046;7.010;2024-01-15T12:09:20;4.30;;;2.83;;
3081;SDS011;1551;51.046;7.010;2024-01-15T12:12:11;3.38;;;2.85;;
3081;SDS011;1551;51.046;7.010;2024-01-15T12:15:08;3.85;;;2.75;;
3081;SDS011;1551;51.046;7.010;2024-01-15T12:17:58;7.07;;;4.18;;
3081;SDS011;1551;51.046;7.010;2024-01-15T12:20:48;5.68;;;4.45;;
3081;SDS011;1551;51.046;7.010;2024-01-15T12:23:36;3.53;;;2.75;;
3081;SDS011;1551;51.046;7.010;2024-01-15T12:26:26;4.68;;;3.15;;
3081;SDS011;1551;51.046;7.010;2024-01-15T12:29:17;5.05;;;4.25;;
3081;SDS011;1551;51.046;7.010;2024-01-15T12:32:07;6.07;;;4.30;;
3081;SDS011;1551;51.046;7.010;2024-01-15T12:34:57;6.45;;;5.03;;
3081;SDS011;1551;51.046;7.010;2024-01-15T12:37:47;5.60;;;4.68;;
3081;SDS011;1551;51.046;7.010;2024-01-15T12:40:36;5.70;;;4.80;;
3081;SDS011;1551;51.046;7.010;2024-01-15T12:43:25;7.10;;;4.70;;
3081;SDS011;1551;51.046;7.010;2024-01-15T12:46:14;6.43;;;4.30;;
3081;SDS011;1551;51.046;7.010;2024-01-15T12:49:04;4.82;;;4.32;;
3081;SDS011;1551;51.046;7.010;2024-01-15T12:51:53;5.33;;;3.73;;
3081;SDS011;1551;51.046;7.010;2024-01-15T12:54:43;6.20;;;4.32;;
3081;SDS011;1551;51.046;7.010;2024-01-15T12:57:32;6.63;;;3.90;;
3081;SDS011;1551;51.046;7.010;2024-01-15T13:00:21;8.30;;;3.97;;
3081;SDS011;1551;51.046;7.010;2024-01-15T13:03:10;6.07;;;3.78;;
3081;SDS011;1551;51.046;7.010;2024-01-15T13:05:59;6.57;;;3.90;;
3081;SDS011;1551;51.046;7.010;2024-01-15T13:08:48;6.00;;;3.60;;
3081;SDS011;1551;51.046;7.010;2024-01-15T13:11:37;6.72;;;4.10;;
3081;SDS011;1551;51.046;7.010;2024-01-15T13:14:26;5.78;;;3.00;;
3081;SDS011;1551;51.046;7.010;2024-01-15T13:17:16;5.97;;;3.20;;
3081;SDS011;1551;51.046;7.010;2024-01-15T13:20:06;6.82;;;3.40;;
3081;SDS011;1551;51.046;7.010;2024-01-15T13:22:55;6.85;;;3.60;;
3081;SDS011;1551;51.046;7.010;2024-01-15T13:25:44;6.55;;;3.30;;
3081;SDS011;1551;51.046;7.010;2024-01-15T13:28:33;6.47;;;2.85;;
3081;SDS011;1551;51.046;7.010;2024-01-15T13:31:22;4.40;;;2.80;;
3081;SDS011;1551;51.046;7.010;2024-01-15T13:34:11;7.35;;;3.65;;
3081;SDS011;1551;51.046;7.010;2024-01-15T13:37:01;6.93;;;3.17;;
3081;SDS011;1551;51.046;7.010;2024-01-15T13:39:50;4.50;;;2.90;;
3081;SDS011;1551;51.046;7.010;2024-01-15T13:42:42;5.53;;;3.30;;
3081;SDS011;1551;51.046;7.010;2024-01-15T13:45:31;5.80;;;2.80;;
3081;SDS011;1551;51.046;7.010;2024-01-15T13:48:21;5.20;;;3.20;;
3081;SDS011;1551;51.046;7.010;2024-01-15T13:51:10;5.60;;;2.70;;
3081;SDS011;1551;51.046;7.010;2024-01-15T13:54:00;4.97;;;3.10;;
3081;SDS011;1551;51.046;7.010;2024-01-15T13:56:49;4.57;;;2.70;;
3081;SDS011;1551;51.046;7.010;2024-01-15T13:59:38;6.40;;;2.50;;
3081;SDS011;1551;51.046;7.010;2024-01-15T14:02:27;4.10;;;2.20;;
3081;SDS011;1551;51.046;7.010;2024-01-15T14:05:16;3.22;;;2.00;;
3081;SDS011;1551;51.046;7.010;2024-01-15T14:08:05;3.83;;;2.50;;
3081;SDS011;1551;51.046;7.010;2024-01-15T14:10:54;5.03;;;2.50;;
3081;SDS011;1551;51.046;7.010;2024-01-15T14:13:45;3.53;;;2.28;;
3081;SDS011;1551;51.046;7.010;2024-01-15T14:16:34;4.10;;;2.55;;
3081;SDS011;1551;51.046;7.010;2024-01-15T14:19:23;4.30;;;2.27;;
3081;SDS011;1551;51.046;7.010;2024-01-15T14:22:12;4.00;;;2.65;;
3081;SDS011;1551;51.046;7.010;2024-01-15T14:25:01;3.95;;;2.53;;
3081;SDS011;1551;51.046;7.010;2024-01-15T14:27:50;2.97;;;2.10;;
3081;SDS011;1551;51.046;7.010;2024-01-15T14:30:39;3.40;;;2.58;;
3081;SDS011;1551;51.046;7.010;2024-01-15T14:33:28;3.60;;;2.50;;
3081;SDS011;1551;51.046;7.010;2024-01-15T14:36:17;5.35;;;2.70;;
3081;SDS011;1551;51.046;7.010;2024-01-15T14:39:05;5.53;;;4.15;;
3081;SDS011;1551;51.046;7.010;2024-01-15T14:41:54;3.63;;;2.40;;
3081;SDS011;1551;51.046;7.010;2024-01-15T14:44:43;6.15;;;3.03;;
3081;SDS011;1551;51.046;7.010;2024-01-15T14:47:33;8.57;;;7.18;;
3081;SDS011;1551;51.046;7.010;2024-01-15T14:50:22;14.65;;;10.73;;
3081;SDS011;1551;51.046;7.010;2024-01-15T14:53:11;8.20;;;4.97;;
3081;SDS011;1551;51.046;7.010;2024-01-15T14:56:00;3.80;;;3.28;;
3081;SDS011;1551;51.046;7.010;2024-01-15T14:58:51;3.20;;;2.20;;
3081;SDS011;1551;51.046;7.010;2024-01-15T15:01:40;4.10;;;2.80;;
3081;SDS011;1551;51.046;7.010;2024-01-15T15:04:30;4.18;;;3.65;;
3081;SDS011;1551;51.046;7.010;2024-01-15T15:07:19;4.03;;;2.70;;
3081;SDS011;1551;51.046;7.010;2024-01-15T15:10:08;2.90;;;2.50;;
3081;SDS011;1551;51.046;7.010;2024-01-15T15:12:59;3.35;;;2.50;;
3081;SDS011;1551;51.046;7.010;2024-01-15T15:15:48;4.75;;;2.58;;
3081;SDS011;1551;51.046;7.010;2024-01-15T15:18:37;3.43;;;2.80;;
3081;SDS011;1551;51.046;7.010;2024-01-15T15:21:27;4.00;;;3.60;;
3081;SDS011;1551;51.046;7.010;2024-01-15T15:24:17;5.43;;;3.90;;
3081;SDS011;1551;51.046;7.010;2024-01-15T15:27:06;5.38;;;4.35;;
3081;SDS011;1551;51.046;7.010;2024-01-15T15:29:55;5.47;;;3.63;;
3081;SDS011;1551;51.046;7.010;2024-01-15T15:32:44;4.93;;;3.90;;
3081;SDS011;1551;51.046;7.010;2024-01-15T15:35:33;3.80;;;3.40;;
3081;SDS011;1551;51.046;7.010;2024-01-15T15:38:22;4.38;;;3.05;;
3081;SDS011;1551;51.046;7.010;2024-01-15T15:41:11;3.42;;;2.40;;
3081;SDS011;1551;51.046;7.010;2024-01-15T15:44:00;3.80;;;2.70;;
3081;SDS011;1551;51.046;7.010;2024-01-15T15:46:49;4.70;;;3.92;;
3081;SDS011;1551;51.046;7.010;2024-01-15T15:49:38;4.57;;;4.05;;
3081;SDS011;1551;51.046;7.010;2024-01-15T15:52:27;7.18;;;4.07;;
3081;SDS011;1551;51.046;7.010;2024-01-15T15:55:16;5.25;;;3.25;;
3081;SDS011;1551;51.046;7.010;2024-01-15T15:58:05;4.45;;;2.42;;
3081;SDS011;1551;51.046;7.010;2024-01-15T16:00:54;5.03;;;3.00;;
3081;SDS011;1551;51.046;7.010;2024-01-15T16:03:43;3.50;;;2.10;;
3081;SDS011;1551;51.046;7.010;2024-01-15T16:06:32;10.75;;;9.65;;
3081;SDS011;1551;51.046;7.010;2024-01-15T16:09:21;6.45;;;3.55;;
3081;SDS011;1551;51.046;7.010;2024-01-15T16:12:10;3.72;;;2.88;;
3081;SDS011;1551;51.046;7.010;2024-01-15T16:15:00;3.90;;;3.10;;
3081;SDS011;1551;51.046;7.010;2024-01-15T16:17:50;5.05;;;3.83;;
3081;SDS011;1551;51.046;7.010;2024-01-15T16:20:40;5.53;;;3.50;;
3081;SDS011;1551;51.046;7.010;2024-01-15T16:23:30;6.43;;;3.67;;
3081;SDS011;1551;51.046;7.010;2024-01-15T16:26:19;5.75;;;3.50;;
3081;SDS011;1551;51.046;7.010;2024-01-15T16:29:08;4.78;;;2.85;;
3081;SDS011;1551;51.046;7.010;2024-01-15T16:31:57;4.80;;;3.10;;
3081;SDS011;1551;51.046;7.010;2024-01-15T16:34:46;4.68;;;3.08;;
3081;SDS011;1551;51.046;7.010;2024-01-15T16:37:35;4.15;;;3.15;;
3081;SDS011;1551;51.046;7.010;2024-01-15T16:40:24;6.55;;;3.40;;
3081;SDS011;1551;51.046;7.010;2024-01-15T16:43:13;7.10;;;5.00;;
3081;SDS011;1551;51.046;7.010;2024-01-15T16:46:02;8.02;;;5.18;;
3081;SDS011;1551;51.046;7.010;2024-01-15T16:48:51;6.80;;;3.88;;
3081;SDS011;1551;51.046;7.010;2024-01-15T16:51:40;4.60;;;3.55;;
3081;SDS011;1551;51.046;7.010;2024-01-15T16:54:30;4.60;;;4.00;;
3081;SDS011;1551;51.046;7.010;2024-01-15T16:57:20;9.15;;;6.55;;
3081;SDS011;1551;51.046;7.010;2024-01-15T17:00:09;6.82;;;5.15;;
3081;SDS011;1551;51.046;7.010;2024-01-15T17:02:59;10.27;;;7.57;;
3081;SDS011;1551;51.046;7.010;2024-01-15T17:05:48;7.63;;;5.90;;
3081;SDS011;1551;51.046;7.010;2024-01-15T17:08:38;7.00;;;5.30;;
3081;SDS011;1551;51.046;7.010;2024-01-15T17:11:27;10.50;;;7.07;;
3081;SDS011;1551;51.046;7.010;2024-01-15T17:14:16;7.47;;;5.80;;
3081;SDS011;1551;51.046;7.010;2024-01-15T17:17:06;6.10;;;4.22;;
3081;SDS011;1551;51.046;7.010;2024-01-15T17:19:55;5.90;;;4.50;;
3081;SDS011;1551;51.046;7.010;2024-01-15T17:22:44;8.07;;;5.25;;
3081;SDS011;1551;51.046;7.010;2024-01-15T17:25:33;8.98;;;5.00;;
3081;SDS011;1551;51.046;7.010;2024-01-15T17:28:22;14.68;;;8.90;;
3081;SDS011;1551;51.046;7.010;2024-01-15T17:31:13;9.27;;;5.35;;